HST,Max TemperatureF,Mean TemperatureF,Min TemperatureF,Max Dew PointF,MeanDew PointF,Min DewpointF,Max Humidity, Mean Humidity, Min Humidity, Max Sea Level PressureIn, Mean Sea Level PressureIn, Min Sea Level PressureIn, Max VisibilityMiles, Mean VisibilityMiles, Min VisibilityMiles, Max Wind SpeedMPH, Mean Wind SpeedMPH, Max Gust SpeedMPH,PrecipitationIn, CloudCover, Events, WindDirDegrees
2013-11-1,48,45,42,45,42,36,93,86,71,29.80,29.08,28.68,10,4,1,38,26,53,0.00,8,,141
2013-11-2,46,44,41,45,40,36,93,82,76,29.43,29.26,29.07,10,8,2,28,15,37,0.00,8,,206
2013-11-3,42,40,37,39,36,34,93,83,76,29.79,29.33,29.08,10,9,3,34,13,45,0.00,8,,284
2013-11-4,42,38,35,34,32,28,87,76,65,30.23,30.04,29.83,10,10,2,23,16,31,0.00,7,,284
2013-11-5,48,44,39,46,37,32,100,79,66,30.20,29.63,29.07,10,7,1,50,23,62,0.00,7,,142
2013-11-6,46,40,35,37,33,27,87,72,57,29.91,29.41,29.01,10,8,2,39,27,58,0.00,8,,253
2013-11-7,50,46,42,43,38,32,87,73,61,30.31,30.12,29.92,10,9,6,25,14,33,0.00,7,,247
2013-11-8,48,47,46,43,39,36,87,74,62,30.38,30.32,30.17,10,8,5,31,15,56,0.00,6,,218
2013-11-9,48,42,37,45,37,27,93,77,57,30.33,30.13,30.02,10,8,2,36,21,50,0.00,7,,262
2013-11-10,42,40,37,36,32,27,81,69,61,30.77,30.58,30.33,10,10,4,32,22,46,0.00,7,,272
2013-11-11,44,43,42,37,33,30,81,67,57,30.78,30.69,30.56,10,10,10,20,11,28,0.00,8,,280
2013-11-12,51,46,42,46,41,36,87,81,71,30.56,30.50,30.46,10,10,9,17,8,21,0.00,3,,255
2013-11-13,51,48,42,45,42,39,93,85,76,30.56,30.53,30.51,10,7,2,24,13,30,0.00,5,,220
2013-11-14,44,42,39,39,38,36,87,83,71,30.53,30.45,30.41,10,7,3,29,13,33,0.00,3,,199
2013-11-15,44,40,35,39,37,30,93,87,81,30.42,30.38,30.33,10,8,0,14,4,20,0.00,3,,137
2013-11-16,44,42,39,39,39,37,93,86,81,30.33,30.21,30.11,10,9,4,28,17,34,0.00,8,,111
2013-11-17,44,43,42,39,39,39,87,83,81,30.11,30.01,29.95,10,6,2,26,22,32,0.00,8,,92
2013-11-18,44,43,42,41,39,36,87,82,71,29.94,29.83,29.76,10,5,2,30,23,39,0.00,8,,84
2013-11-19,44,43,42,39,37,34,87,79,70,29.77,29.71,29.65,10,8,2,23,15,37,0.00,8,,57
2013-11-20,42,38,33,36,26,16,81,63,48,29.86,29.75,29.68,10,9,4,21,10,36,0.00,7,,357
2013-11-21,35,32,30,23,19,16,65,56,48,29.90,29.87,29.84,10,10,10,20,13,22,0.00,6,,325
2013-11-22,35,30,24,23,19,16,74,62,48,29.85,29.70,29.58,10,10,10,20,5,26,0.00,4,,44
2013-11-23,37,35,33,25,20,18,70,55,45,29.78,29.70,29.59,10,10,4,16,9,24,0.00,7,,11
2013-11-24,37,34,30,28,23,18,87,66,48,29.82,29.78,29.76,10,9,2,14,7,20,0.00,5,,312
2013-11-25,37,32,26,28,23,19,93,69,48,30.09,29.94,29.82,10,10,2,15,6,24,0.00,5,,294
2013-11-26,37,32,26,30,24,19,80,70,52,30.17,30.10,30.01,10,10,10,10,3,,0.00,4,,323
2013-11-27,39,37,35,30,29,27,81,70,61,30.01,29.94,29.90,10,10,5,22,9,31,0.00,7,,46
2013-11-28,37,36,35,30,26,25,75,63,60,30.19,30.08,29.97,10,10,10,25,18,40,0.00,6,,49
2013-11-29,39,38,37,32,28,27,75,66,65,30.28,30.24,30.18,10,10,10,21,16,32,0.00,8,,87
2013-11-30,41,39,37,36,32,28,87,75,65,30.24,30.12,29.93,10,9,3,26,20,34,0.00,8,,112